To NAV CANADA Home Page Login to a new session Search on AWWS site Disclaimer Vers la page française équivalente Tips FAQ What's new on the site To the Forecasts and Observations / NOTAM section To "File a Flight Plan" website Publications and other links Update of the User's profile FIC Telephone Numbers My Weather Data Folder Route Weather Data Regional Weather Data Local Weather Data To the Forecasts and Observations / NOTAM section
Request Generated 04/22/2019 at 12:34:17 UTC . Weather information available at that time is displayed.


Go to a specific product

Save this request - Inactive

METAR/TAF

CALGARY/YYC CALGARY INTL/AB    

METAR CYYC 221200Z 22004KT 30SM FEW110 FEW250 01/M10 A3005 RMK AC1CI1 AC TR SLP200=
METAR CYYC 221100Z 21002KT 15SM FEW120 FEW250 01/M10 A3006 RMK AC1CI1 AC TR CI TR SLP202=
METAR CYYC 221000Z VRB02KT 15SM FEW230 02/M09 A3006 RMK CI1 CI TR SLP202=

TAF CYYC 221145Z 2212/2312 VRB03KT P6SM FEW120 SCT240
BECMG 2212/2214 22006KT
FM221700 19008KT P6SM SCT240
FM222100 25020KT P6SM SCT140 BKN200
FM230200 28012G22KT P6SM SCT240
FM230900 27008KT P6SM FEW240
RMK NXT FCST BY 221500Z=

CALGARY/SPRINGBANK/AB    (show WxCam)

METAR CYBW 221200Z AUTO 30004KT 9SM CLR M04/M10 A3005 RMK SLP208=
METAR CYBW 221100Z AUTO VRB03KT 9SM CLR M04/M10 A3007 RMK SLP213=
METAR CYBW 221000Z AUTO VRB02KT 9SM CLR M02/M11 A3007 RMK SLP211=

TAF CYBW 221145Z 2212/2224 VRB03KT P6SM FEW120 SCT240
BECMG 2214/2216 22006KT
FM222000 25012G22KT P6SM SCT140 BKN200
RMK FCST BASED ON AUTO OBS. NXT FCST BY 221800Z=


GRAPHICAL FA CLOUDS & WEATHER FORECASTS
To the Product Selector
Graphical FA gfacn32      

GRAPHICAL FA ICING, TURBULENCE & FREEZING LEVEL FORECASTS
To the Product Selector
Graphical FA gfacn32      

Your time UTC time
Weather data provided by Environment Canada and NAV CANADA